createdAt,value
2019-04-09T00:01:24.769Z,90561.13
2019-04-09T00:04:14.774Z,90559.63
2019-04-09T00:07:02.000Z,90560.66
2019-04-09T00:09:50.059Z,90559.96
2019-04-09T00:12:38.173Z,90558.39
2019-04-09T00:15:26.892Z,90550.83
2019-04-09T00:18:15.930Z,90548.48
2019-04-09T00:21:06.026Z,90554.20
2019-04-09T00:23:55.265Z,90542.23
2019-04-09T00:26:50.279Z,90536.27
2019-04-09T00:29:33.356Z,90534.25
2019-04-09T00:32:22.110Z,90529.16
2019-04-09T00:35:11.236Z,90532.84
2019-04-09T00:38:00.551Z,90521.10
2019-04-09T00:40:48.740Z,90522.11
2019-04-09T00:43:37.730Z,90519.37
2019-04-09T00:46:25.952Z,90509.91
2019-04-09T00:49:14.481Z,90504.65
2019-04-09T00:52:02.624Z,90506.15
2019-04-09T00:54:52.213Z,90498.59
2019-04-09T00:57:40.538Z,90495.38
2019-04-09T01:00:43.203Z,90485.88
2019-04-09T01:03:30.248Z,90490.52
2019-04-09T01:06:18.888Z,90491.41
2019-04-09T01:09:10.339Z,90493.66
2019-04-09T01:11:59.701Z,90481.09
2019-04-09T01:14:48.656Z,90474.92
2019-04-09T01:17:38.066Z,90475.45
2019-04-09T01:20:26.506Z,90471.82
2019-04-09T01:23:15.797Z,90472.94
2019-04-09T01:26:31.891Z,90478.19
2019-04-09T01:29:40.756Z,90477.94
2019-04-09T01:32:45.168Z,90460.05
2019-04-09T01:35:44.852Z,90457.77
2019-04-09T01:38:49.271Z,90457.53
2019-04-09T01:42:05.044Z,90451.01
2019-04-09T01:45:10.867Z,90450.48
2019-04-09T01:48:08.206Z,90450.62
2019-04-09T01:51:15.592Z,90450.11
2019-04-09T01:54:25.743Z,90443.53
2019-04-09T01:57:34.935Z,90438.61
2019-04-09T02:00:42.665Z,90441.56
2019-04-09T02:03:49.733Z,90441.75
2019-04-09T02:07:03.980Z,90434.52
2019-04-09T02:10:29.285Z,90432.32
2019-04-09T02:13:32.065Z,90434.55
2019-04-09T02:16:51.799Z,90437.89
2019-04-09T02:20:04.765Z,90433.33
2019-04-09T02:23:23.956Z,90431.04
2019-04-09T02:26:18.048Z,90429.22
2019-04-09T02:29:29.101Z,90425.57
2019-04-09T02:32:42.507Z,90430.09
2019-04-09T02:35:45.473Z,90425.12
2019-04-09T02:39:01.723Z,90424.17
2019-04-09T02:42:08.759Z,90418.77
2019-04-09T02:45:14.697Z,90415.11
2019-04-09T02:48:25.555Z,90423.17
2019-04-09T02:51:22.155Z,90418.56
2019-04-09T02:54:18.753Z,90421.83
2019-04-09T02:57:32.444Z,90414.86
2019-04-09T03:00:28.325Z,90417.00
2019-04-09T03:03:25.659Z,90419.73
2019-04-09T03:06:20.268Z,90420.44
2019-04-09T03:09:26.682Z,90416.45
2019-04-09T03:12:37.074Z,90426.13
2019-04-09T03:15:48.689Z,90424.62
2019-04-09T03:19:03.302Z,90420.11
2019-04-09T03:22:09.107Z,90419.94
2019-04-09T03:25:14.992Z,90423.23
2019-04-09T03:28:21.406Z,90420.72
2019-04-09T03:31:17.917Z,90423.23
2019-04-09T03:34:27.891Z,90434.69
2019-04-09T03:37:24.821Z,90434.47
2019-04-09T03:40:47.220Z,90435.08
2019-04-09T03:43:52.932Z,90443.70
2019-04-09T03:46:59.096Z,90443.84
2019-04-09T03:50:12.882Z,90443.73
2019-04-09T03:53:10.861Z,90440.77
2019-04-09T03:56:33.140Z,90440.24
2019-04-09T03:59:54.924Z,90440.35
2019-04-09T04:03:00.927Z,90431.91
2019-04-09T04:06:08.328Z,90430.47
2019-04-09T04:09:30.019Z,90430.73
2019-04-09T04:12:52.054Z,90431.64
2019-04-09T04:15:57.262Z,90432.70
2019-04-09T04:19:03.153Z,90439.30
2019-04-09T04:22:13.276Z,90439.30
2019-04-09T04:25:20.047Z,90435.28
2019-04-09T04:28:31.154Z,90442.98
2019-04-09T04:31:40.553Z,90448.95
2019-04-09T04:34:36.105Z,90454.19
2019-04-09T04:37:54.256Z,90456.06
2019-04-09T04:41:12.753Z,90459.30
2019-04-09T04:44:18.369Z,90465.02
2019-04-09T04:47:34.452Z,90462.00
2019-04-09T04:50:40.040Z,90467.47
2019-04-09T04:53:43.522Z,90467.66
2019-04-09T04:56:41.694Z,90474.55
2019-04-09T04:59:48.949Z,90478.09
2019-04-09T05:03:11.683Z,90474.45
2019-04-09T05:06:15.730Z,90473.61
2019-04-09T05:09:16.681Z,90466.69
2019-04-09T05:12:23.678Z,90469.09
2019-04-09T05:15:31.217Z,90470.01
2019-04-09T05:18:31.319Z,90475.25
2019-04-09T17:09:38.206Z,90711.84
2019-04-09T17:12:34.471Z,90717.80
2019-04-09T17:15:23.220Z,90720.97
2019-04-09T17:18:12.406Z,90725.38
2019-04-09T17:21:03.201Z,90724.09
2019-04-09T17:23:51.864Z,90727.64
2019-04-09T17:26:40.545Z,90733.06
2019-04-09T17:29:29.960Z,90730.59
2019-04-09T17:32:19.221Z,90735.91
2019-04-09T17:35:08.805Z,90744.50
2019-04-09T17:37:59.431Z,90741.12
2019-04-09T17:40:48.276Z,90758.78
2019-04-09T17:43:37.946Z,90755.52
2019-04-09T17:46:27.048Z,90756.69
2019-04-09T17:49:15.337Z,90765.19
2019-04-09T17:52:03.878Z,90771.57
2019-04-09T17:54:52.533Z,90773.28
2019-04-09T17:57:40.197Z,90782.26
2019-04-09T18:00:29.041Z,90777.67
2019-04-09T18:03:20.912Z,90780.64
2019-04-09T18:06:10.488Z,90777.20
2019-04-09T18:08:59.372Z,90779.35
2019-04-09T18:11:47.766Z,90789.92
2019-04-09T18:14:36.520Z,90793.51
2019-04-09T18:17:25.653Z,90790.94
2019-04-09T18:20:13.999Z,90789.65
2019-04-09T18:23:04.132Z,90790.67
2019-04-09T18:25:56.751Z,90792.67
2019-04-09T18:28:42.721Z,90805.60
2019-04-09T18:31:34.665Z,90805.92
2019-04-09T18:34:20.738Z,90807.83
2019-04-09T18:37:08.710Z,90812.69
2019-04-09T18:39:56.539Z,90818.87
2019-04-09T18:42:45.924Z,90821.08
2019-04-09T18:45:33.651Z,90818.05
2019-04-09T18:48:31.887Z,90822.77
2019-04-09T18:51:12.334Z,90826.13
2019-04-09T18:54:00.516Z,90832.56
2019-04-09T18:56:49.927Z,90827.34
2019-04-09T18:59:39.223Z,90825.67
2019-04-09T19:02:29.074Z,90831.60
2019-04-09T19:05:18.227Z,90831.60
2019-04-09T19:08:12.980Z,90831.77
2019-04-09T19:11:01.921Z,90831.97
2019-04-09T19:13:51.252Z,90837.13
2019-04-09T19:16:40.103Z,90842.33
2019-04-09T19:19:28.865Z,90844.78
2019-04-09T19:22:18.131Z,90850.97
2019-04-09T19:25:08.036Z,90848.66
2019-04-09T19:27:59.319Z,90854.93
2019-04-09T19:30:49.036Z,90858.99
2019-04-09T19:33:38.210Z,90855.31
2019-04-09T19:36:28.376Z,90858.88
2019-04-09T19:39:17.312Z,90856.36
2019-04-09T19:42:13.785Z,90857.98
2019-04-09T19:44:56.574Z,90861.76
2019-04-09T19:47:49.366Z,90856.00
2019-04-09T19:50:39.868Z,90850.59
2019-04-09T19:53:28.956Z,90850.36
2019-04-09T19:56:17.820Z,90848.55
2019-04-09T19:59:06.511Z,90850.23
2019-04-09T20:01:55.049Z,90853.33
2019-04-09T20:04:43.495Z,90848.55
2019-04-09T20:07:31.683Z,90850.34
2019-04-09T20:10:32.888Z,90858.22
2019-04-09T20:13:20.496Z,90852.47
2019-04-09T20:16:10.811Z,90845.47
2019-04-09T20:18:59.188Z,90845.13
2019-04-09T20:21:48.629Z,90836.65
2019-04-09T20:24:36.713Z,90838.86
2019-04-09T20:27:25.354Z,90842.25
2019-04-09T20:30:14.133Z,90846.57
2019-04-09T20:33:01.882Z,90843.76
2019-04-09T20:35:52.483Z,90835.31
2019-04-09T20:38:40.828Z,90846.04
2019-04-09T20:41:30.025Z,90841.14
2019-04-09T20:44:19.797Z,90852.05
2019-04-09T20:47:08.836Z,90848.09
2019-04-09T20:49:57.194Z,90847.97
2019-04-09T20:52:44.873Z,90851.99
2019-04-09T20:55:32.819Z,90851.94
2019-04-09T20:58:20.958Z,90850.47
2019-04-09T21:01:16.324Z,90849.08
2019-04-09T21:04:09.805Z,90852.91
2019-04-09T21:06:57.516Z,90855.59
2019-04-09T21:09:46.228Z,90858.97
2019-04-09T21:12:34.316Z,90864.11
2019-04-09T21:15:24.039Z,90860.61
2019-04-09T21:18:13.204Z,90860.09
2019-04-09T21:21:01.913Z,90859.39
2019-04-09T21:23:50.840Z,90862.41
2019-04-09T21:26:40.545Z,90861.50
2019-04-09T21:29:30.784Z,90863.34
2019-04-09T21:32:19.347Z,90869.00
2019-04-09T21:35:08.877Z,90860.38
2019-04-09T21:37:57.021Z,90864.00
2019-04-09T21:40:46.302Z,90865.22
2019-04-09T21:43:34.814Z,90862.82
2019-04-09T21:46:23.471Z,90860.66
2019-04-09T21:49:13.852Z,90857.70
2019-04-09T21:52:02.218Z,90857.41
2019-04-09T21:54:51.633Z,90853.48
2019-04-09T21:57:39.686Z,90858.97
2019-04-09T22:00:44.818Z,90861.78
2019-04-09T22:03:32.572Z,90861.94
2019-04-09T22:06:27.744Z,90857.55
2019-04-09T22:09:12.361Z,90856.27
2019-04-09T22:12:00.911Z,90851.55
2019-04-09T22:14:50.439Z,90861.12
2019-04-09T22:17:38.579Z,90859.72
2019-04-09T22:20:27.599Z,90863.92
2019-04-09T22:23:16.165Z,90863.70
2019-04-09T22:26:05.235Z,90867.67
2019-04-09T22:28:53.890Z,90861.97
2019-04-09T22:31:42.447Z,90854.57
2019-04-09T22:34:31.129Z,90857.91
2019-04-09T22:37:19.889Z,90861.81
2019-04-09T22:40:08.615Z,90858.03
2019-04-09T22:42:58.158Z,90863.09
2019-04-09T22:45:47.404Z,90858.28
2019-04-09T22:48:36.191Z,90866.62
2019-04-09T22:51:26.371Z,90862.30
2019-04-09T22:54:15.098Z,90857.01
2019-04-09T22:57:04.671Z,90854.48
2019-04-09T22:59:52.317Z,90863.64
2019-04-09T23:02:56.554Z,90864.98
2019-04-09T23:06:11.348Z,90868.36
2019-04-09T23:09:07.919Z,90865.20
2019-04-09T23:12:01.384Z,90868.70
2019-04-09T23:14:50.880Z,90874.83
2019-04-09T23:17:42.305Z,90876.28
2019-04-09T23:20:31.034Z,90884.17
2019-04-09T23:23:20.657Z,90879.95
2019-04-09T23:26:09.405Z,90880.34
2019-04-09T23:28:57.879Z,90881.38
2019-04-09T23:31:47.342Z,90878.88
2019-04-09T23:34:36.579Z,90876.34
2019-04-09T23:37:26.054Z,90876.90
2019-04-09T23:40:14.995Z,90876.08
2019-04-09T23:43:05.728Z,90882.02
2019-04-09T23:45:54.890Z,90880.73
2019-04-09T23:48:43.280Z,90873.85
2019-04-09T23:51:33.198Z,90877.87
2019-04-09T23:54:21.610Z,90884.12
2019-04-09T23:57:09.826Z,90878.98
2019-04-09T23:59:58.779Z,90879.62
